sensor_id;sensor_type;location;lat;lon;timestamp;temperature;humidity
46676;DHT22;32412;51.478;5.694;2023-01-19T00:01:27;2.00;99.90
46676;DHT22;32412;51.478;5.694;2023-01-19T00:03:53;2.00;99.90
46676;DHT22;32412;51.478;5.694;2023-01-19T00:06:19;2.00;99.90
46676;DHT22;32412;51.478;5.694;2023-01-19T00:08:44;1.90;99.90
46676;DHT22;32412;51.478;5.694;2023-01-19T00:11:13;1.90;99.90
46676;DHT22;32412;51.478;5.694;2023-01-19T00:13:39;1.90;99.90
46676;DHT22;32412;51.478;5.694;2023-01-19T00:16:05;1.90;99.90
46676;DHT22;32412;51.478;5.694;2023-01-19T00:18:32;2.00;99.90
46676;DHT22;32412;51.478;5.694;2023-01-19T00:20:58;1.90;99.90
46676;DHT22;32412;51.478;5.694;2023-01-19T00:23:23;2.00;99.90
46676;DHT22;32412;51.478;5.694;2023-01-19T00:25:49;1.90;99.90
46676;DHT22;32412;51.478;5.694;2023-01-19T01:14:12;2.10;99.90
46676;DHT22;32412;51.478;5.694;2023-01-19T01:16:44;2.10;99.90
46676;DHT22;32412;51.478;5.694;2023-01-19T01:19:10;2.00;99.90
46676;DHT22;32412;51.478;5.694;2023-01-19T01:21:36;2.00;99.90
46676;DHT22;32412;51.478;5.694;2023-01-19T01:24:02;1.90;99.90
46676;DHT22;32412;51.478;5.694;2023-01-19T01:26:28;1.80;99.90
46676;DHT22;32412;51.478;5.694;2023-01-19T01:28:53;1.90;99.90
46676;DHT22;32412;51.478;5.694;2023-01-19T01:31:22;1.80;99.90
46676;DHT22;32412;51.478;5.694;2023-01-19T01:33:47;1.80;99.90
46676;DHT22;32412;51.478;5.694;2023-01-19T01:36:13;1.90;99.90
46676;DHT22;32412;51.478;5.694;2023-01-19T01:38:39;1.80;99.90
46676;DHT22;32412;51.478;5.694;2023-01-19T01:41:05;1.90;99.90
46676;DHT22;32412;51.478;5.694;2023-01-19T01:43:58;1.90;99.90
46676;DHT22;32412;51.478;5.694;2023-01-19T01:46:27;2.00;99.90
46676;DHT22;32412;51.478;5.694;2023-01-19T01:49:04;2.00;99.90
46676;DHT22;32412;51.478;5.694;2023-01-19T01:51:47;2.00;99.90
46676;DHT22;32412;51.478;5.694;2023-01-19T01:57:10;2.10;99.90
46676;DHT22;32412;51.478;5.694;2023-01-19T01:59:41;2.10;99.90
46676;DHT22;32412;51.478;5.694;2023-01-19T02:02:18;2.10;99.90
46676;DHT22;32412;51.478;5.694;2023-01-19T02:05:25;2.20;99.90
46676;DHT22;32412;51.478;5.694;2023-01-19T02:10:51;2.20;99.90
46676;DHT22;32412;51.478;5.694;2023-01-19T02:13:37;2.20;99.90
46676;DHT22;32412;51.478;5.694;2023-01-19T02:16:08;2.30;99.90
46676;DHT22;32412;51.478;5.694;2023-01-19T02:18:35;2.30;99.90
46676;DHT22;32412;51.478;5.694;2023-01-19T02:21:16;2.40;99.90
46676;DHT22;32412;51.478;5.694;2023-01-19T02:23:49;2.40;99.90
46676;DHT22;32412;51.478;5.694;2023-01-19T02:26:34;2.20;99.90
46676;DHT22;32412;51.478;5.694;2023-01-19T02:29:18;2.00;99.90
46676;DHT22;32412;51.478;5.694;2023-01-19T02:31:45;1.90;99.90
46676;DHT22;32412;51.478;5.694;2023-01-19T02:34:20;1.70;99.90
46676;DHT22;32412;51.478;5.694;2023-01-19T02:39:24;1.50;99.90
46676;DHT22;32412;51.478;5.694;2023-01-19T02:41:55;1.40;99.90
46676;DHT22;32412;51.478;5.694;2023-01-19T02:44:33;1.30;99.90
46676;DHT22;32412;51.478;5.694;2023-01-19T03:28:59;1.10;99.90
46676;DHT22;32412;51.478;5.694;2023-01-19T03:44:51;1.00;99.90
46676;DHT22;32412;51.478;5.694;2023-01-19T03:51:04;1.00;99.90
46676;DHT22;32412;51.478;5.694;2023-01-19T04:20:32;0.80;99.90
46676;DHT22;32412;51.478;5.694;2023-01-19T04:23:54;0.80;99.90
46676;DHT22;32412;51.478;5.694;2023-01-19T04:30:20;0.80;99.90
46676;DHT22;32412;51.478;5.694;2023-01-19T04:36:42;0.80;99.90
46676;DHT22;32412;51.478;5.694;2023-01-19T04:46:14;0.80;99.90
46676;DHT22;32412;51.478;5.694;2023-01-19T04:49:11;0.80;99.90
46676;DHT22;32412;51.478;5.694;2023-01-19T04:52:09;0.70;99.90
46676;DHT22;32412;51.478;5.694;2023-01-19T04:54:47;0.80;99.90
46676;DHT22;32412;51.478;5.694;2023-01-19T05:04:15;0.80;99.90
46676;DHT22;32412;51.478;5.694;2023-01-19T05:06:44;0.70;99.90
46676;DHT22;32412;51.478;5.694;2023-01-19T05:09:12;0.70;99.90
46676;DHT22;32412;51.478;5.694;2023-01-19T05:11:39;0.70;99.90
46676;DHT22;32412;51.478;5.694;2023-01-19T05:14:06;0.70;99.90
46676;DHT22;32412;51.478;5.694;2023-01-19T05:16:32;0.80;99.90
46676;DHT22;32412;51.478;5.694;2023-01-19T05:19:02;0.80;99.90
46676;DHT22;32412;51.478;5.694;2023-01-19T05:21:28;0.80;99.90
46676;DHT22;32412;51.478;5.694;2023-01-19T05:23:56;0.80;99.90
46676;DHT22;32412;51.478;5.694;2023-01-19T05:26:25;0.80;99.90
46676;DHT22;32412;51.478;5.694;2023-01-19T05:28:51;0.80;99.90
46676;DHT22;32412;51.478;5.694;2023-01-19T05:31:17;0.80;99.90
46676;DHT22;32412;51.478;5.694;2023-01-19T05:33:45;0.80;99.90
46676;DHT22;32412;51.478;5.694;2023-01-19T05:36:12;0.90;99.90
46676;DHT22;32412;51.478;5.694;2023-01-19T05:38:41;0.80;99.90
46676;DHT22;32412;51.478;5.694;2023-01-19T05:41:10;0.90;99.90
46676;DHT22;32412;51.478;5.694;2023-01-19T05:43:39;0.90;99.90
46676;DHT22;32412;51.478;5.694;2023-01-19T05:46:08;0.90;99.90
46676;DHT22;32412;51.478;5.694;2023-01-19T05:52:23;0.90;99.90
46676;DHT22;32412;51.478;5.694;2023-01-19T05:54:49;0.90;99.90
46676;DHT22;32412;51.478;5.694;2023-01-19T05:57:16;0.90;99.90
46676;DHT22;32412;51.478;5.694;2023-01-19T05:59:42;0.90;99.90
46676;DHT22;32412;51.478;5.694;2023-01-19T06:02:08;1.00;99.90
46676;DHT22;32412;51.478;5.694;2023-01-19T06:04:34;1.00;99.90
46676;DHT22;32412;51.478;5.694;2023-01-19T06:07:07;1.00;99.90
46676;DHT22;32412;51.478;5.694;2023-01-19T06:09:33;1.00;99.90
46676;DHT22;32412;51.478;5.694;2023-01-19T06:11:58;1.00;99.90
46676;DHT22;32412;51.478;5.694;2023-01-19T06:14:25;1.00;99.90
46676;DHT22;32412;51.478;5.694;2023-01-19T06:16:51;1.10;99.90
46676;DHT22;32412;51.478;5.694;2023-01-19T06:19:17;1.00;99.90
46676;DHT22;32412;51.478;5.694;2023-01-19T06:21:43;1.00;99.90
46676;DHT22;32412;51.478;5.694;2023-01-19T06:24:14;1.00;99.90
46676;DHT22;32412;51.478;5.694;2023-01-19T06:26:43;1.10;99.90
46676;DHT22;32412;51.478;5.694;2023-01-19T06:29:09;1.00;99.90
46676;DHT22;32412;51.478;5.694;2023-01-19T06:31:36;1.10;99.90
46676;DHT22;32412;51.478;5.694;2023-01-19T06:34:03;1.00;99.90
46676;DHT22;32412;51.478;5.694;2023-01-19T06:36:28;1.10;99.90
46676;DHT22;32412;51.478;5.694;2023-01-19T06:38:54;1.10;99.90
46676;DHT22;32412;51.478;5.694;2023-01-19T06:41:22;1.10;99.90
46676;DHT22;32412;51.478;5.694;2023-01-19T06:43:51;1.10;99.90
46676;DHT22;32412;51.478;5.694;2023-01-19T06:46:16;1.10;99.90
46676;DHT22;32412;51.478;5.694;2023-01-19T06:48:45;1.10;99.90
46676;DHT22;32412;51.478;5.694;2023-01-19T06:51:10;1.10;99.90
46676;DHT22;32412;51.478;5.694;2023-01-19T06:53:36;1.20;99.90
46676;DHT22;32412;51.478;5.694;2023-01-19T06:56:05;1.20;99.90
46676;DHT22;32412;51.478;5.694;2023-01-19T06:58:32;1.20;99.90
46676;DHT22;32412;51.478;5.694;2023-01-19T07:01:05;1.20;99.90
46676;DHT22;32412;51.478;5.694;2023-01-19T07:03:32;1.20;99.90
46676;DHT22;32412;51.478;5.694;2023-01-19T07:06:01;1.20;99.90
46676;DHT22;32412;51.478;5.694;2023-01-19T07:08:31;1.20;99.90
46676;DHT22;32412;51.478;5.694;2023-01-19T07:11:03;1.10;99.90
46676;DHT22;32412;51.478;5.694;2023-01-19T07:13:33;1.10;99.90
46676;DHT22;32412;51.478;5.694;2023-01-19T07:16:11;1.20;99.90
46676;DHT22;32412;51.478;5.694;2023-01-19T07:18:39;1.10;99.90
46676;DHT22;32412;51.478;5.694;2023-01-19T07:21:06;1.10;99.90
46676;DHT22;32412;51.478;5.694;2023-01-19T07:23:32;1.10;99.90
46676;DHT22;32412;51.478;5.694;2023-01-19T07:25:59;1.10;99.90
46676;DHT22;32412;51.478;5.694;2023-01-19T07:28:34;1.10;99.90
46676;DHT22;32412;51.478;5.694;2023-01-19T07:31:01;1.10;99.90
46676;DHT22;32412;51.478;5.694;2023-01-19T07:33:27;1.20;99.90
46676;DHT22;32412;51.478;5.694;2023-01-19T07:35:55;1.20;99.90
46676;DHT22;32412;51.478;5.694;2023-01-19T07:38:24;1.20;99.90
46676;DHT22;32412;51.478;5.694;2023-01-19T07:40:49;1.20;99.90
46676;DHT22;32412;51.478;5.694;2023-01-19T07:43:18;1.20;99.90
46676;DHT22;32412;51.478;5.694;2023-01-19T07:45:44;1.20;99.90
46676;DHT22;32412;51.478;5.694;2023-01-19T07:48:09;1.20;99.90
46676;DHT22;32412;51.478;5.694;2023-01-19T07:50:35;1.30;99.90
46676;DHT22;32412;51.478;5.694;2023-01-19T07:53:08;1.30;99.90
46676;DHT22;32412;51.478;5.694;2023-01-19T07:55:34;1.40;99.90
46676;DHT22;32412;51.478;5.694;2023-01-19T07:57:59;1.30;99.90
46676;DHT22;32412;51.478;5.694;2023-01-19T08:00:25;1.40;99.90
46676;DHT22;32412;51.478;5.694;2023-01-19T08:02:51;1.40;99.90
46676;DHT22;32412;51.478;5.694;2023-01-19T08:05:18;1.40;99.90
46676;DHT22;32412;51.478;5.694;2023-01-19T08:07:44;1.50;99.90
46676;DHT22;32412;51.478;5.694;2023-01-19T08:10:14;1.40;99.90
46676;DHT22;32412;51.478;5.694;2023-01-19T08:12:40;1.40;99.90
46676;DHT22;32412;51.478;5.694;2023-01-19T08:15:08;1.40;99.90
46676;DHT22;32412;51.478;5.694;2023-01-19T08:17:34;1.40;99.90
46676;DHT22;32412;51.478;5.694;2023-01-19T08:19:59;1.40;99.90
46676;DHT22;32412;51.478;5.694;2023-01-19T08:22:25;1.40;99.90
46676;DHT22;32412;51.478;5.694;2023-01-19T08:24:51;1.40;99.90
46676;DHT22;32412;51.478;5.694;2023-01-19T08:27:17;1.30;99.90
46676;DHT22;32412;51.478;5.694;2023-01-19T08:29:43;1.40;99.90
46676;DHT22;32412;51.478;5.694;2023-01-19T08:32:08;1.40;99.90
46676;DHT22;32412;51.478;5.694;2023-01-19T08:34:34;1.40;99.90
46676;DHT22;32412;51.478;5.694;2023-01-19T08:37:00;1.40;99.90
46676;DHT22;32412;51.478;5.694;2023-01-19T08:39:26;1.40;99.90
46676;DHT22;32412;51.478;5.694;2023-01-19T08:41:52;1.50;99.90
46676;DHT22;32412;51.478;5.694;2023-01-19T08:44:18;1.50;99.90
46676;DHT22;32412;51.478;5.694;2023-01-19T08:46:44;1.40;99.90
46676;DHT22;32412;51.478;5.694;2023-01-19T08:49:09;1.50;99.90
46676;DHT22;32412;51.478;5.694;2023-01-19T08:51:35;1.40;99.90
46676;DHT22;32412;51.478;5.694;2023-01-19T08:54:02;1.50;99.90
46676;DHT22;32412;51.478;5.694;2023-01-19T08:56:28;1.50;99.90
46676;DHT22;32412;51.478;5.694;2023-01-19T08:58:54;1.50;99.90
46676;DHT22;32412;51.478;5.694;2023-01-19T09:01:20;1.50;99.90
46676;DHT22;32412;51.478;5.694;2023-01-19T09:03:47;1.60;99.90
46676;DHT22;32412;51.478;5.694;2023-01-19T09:06:14;1.60;99.90
46676;DHT22;32412;51.478;5.694;2023-01-19T09:08:42;1.70;99.90
46676;DHT22;32412;51.478;5.694;2023-01-19T09:11:12;1.60;99.90
46676;DHT22;32412;51.478;5.694;2023-01-19T09:13:38;1.60;99.90
46676;DHT22;32412;51.478;5.694;2023-01-19T09:16:06;1.60;99.90
46676;DHT22;32412;51.478;5.694;2023-01-19T09:18:33;1.60;99.90
46676;DHT22;32412;51.478;5.694;2023-01-19T09:21:00;1.60;99.90
46676;DHT22;32412;51.478;5.694;2023-01-19T09:23:26;1.60;99.90
46676;DHT22;32412;51.478;5.694;2023-01-19T09:25:57;1.60;99.90
46676;DHT22;32412;51.478;5.694;2023-01-19T09:28:24;1.70;99.90
46676;DHT22;32412;51.478;5.694;2023-01-19T09:30:49;1.60;99.90
46676;DHT22;32412;51.478;5.694;2023-01-19T09:33:17;1.70;99.90
46676;DHT22;32412;51.478;5.694;2023-01-19T09:35:44;1.70;99.90
46676;DHT22;32412;51.478;5.694;2023-01-19T09:38:11;1.80;99.90
46676;DHT22;32412;51.478;5.694;2023-01-19T09:40:44;1.80;99.90
46676;DHT22;32412;51.478;5.694;2023-01-19T09:43:24;1.80;99.90
46676;DHT22;32412;51.478;5.694;2023-01-19T09:45:57;1.90;99.90
46676;DHT22;32412;51.478;5.694;2023-01-19T09:48:52;1.90;99.90
46676;DHT22;32412;51.478;5.694;2023-01-19T09:51:22;1.90;99.90
46676;DHT22;32412;51.478;5.694;2023-01-19T09:53:52;2.00;99.90
46676;DHT22;32412;51.478;5.694;2023-01-19T09:56:20;2.10;99.90
46676;DHT22;32412;51.478;5.694;2023-01-19T09:58:48;2.10;99.90
46676;DHT22;32412;51.478;5.694;2023-01-19T10:04:03;2.30;99.90
46676;DHT22;32412;51.478;5.694;2023-01-19T10:06:32;2.20;99.90
46676;DHT22;32412;51.478;5.694;2023-01-19T10:11:50;2.30;99.90
46676;DHT22;32412;51.478;5.694;2023-01-19T10:14:27;2.30;99.90
46676;DHT22;32412;51.478;5.694;2023-01-19T10:17:14;2.30;99.90
46676;DHT22;32412;51.478;5.694;2023-01-19T10:19:44;2.20;99.90
46676;DHT22;32412;51.478;5.694;2023-01-19T10:22:29;2.30;99.90
46676;DHT22;32412;51.478;5.694;2023-01-19T10:25:03;2.30;99.90
46676;DHT22;32412;51.478;5.694;2023-01-19T10:27:37;2.30;99.90
46676;DHT22;32412;51.478;5.694;2023-01-19T10:30:03;2.50;99.90
46676;DHT22;32412;51.478;5.694;2023-01-19T10:32:35;2.60;99.90
46676;DHT22;32412;51.478;5.694;2023-01-19T10:35:23;2.70;99.90
46676;DHT22;32412;51.478;5.694;2023-01-19T10:37:55;2.70;99.90
46676;DHT22;32412;51.478;5.694;2023-01-19T10:45:58;3.20;99.90
46676;DHT22;32412;51.478;5.694;2023-01-19T10:48:24;3.30;99.90
46676;DHT22;32412;51.478;5.694;2023-01-19T10:51:01;3.90;99.90
46676;DHT22;32412;51.478;5.694;2023-01-19T10:53:27;4.50;99.90
46676;DHT22;32412;51.478;5.694;2023-01-19T10:56:24;4.60;99.90
46676;DHT22;32412;51.478;5.694;2023-01-19T10:58:51;5.20;99.90
46676;DHT22;32412;51.478;5.694;2023-01-19T11:01:25;5.30;99.90
46676;DHT22;32412;51.478;5.694;2023-01-19T11:03:52;5.30;99.90
46676;DHT22;32412;51.478;5.694;2023-01-19T11:06:24;5.30;99.90
46676;DHT22;32412;51.478;5.694;2023-01-19T11:08:51;5.20;99.90
46676;DHT22;32412;51.478;5.694;2023-01-19T11:11:21;5.30;99.90
46676;DHT22;32412;51.478;5.694;2023-01-19T11:14:04;5.50;99.90
46676;DHT22;32412;51.478;5.694;2023-01-19T11:16:31;5.60;99.90
46676;DHT22;32412;51.478;5.694;2023-01-19T11:18:59;5.80;99.90
46676;DHT22;32412;51.478;5.694;2023-01-19T11:21:29;5.50;99.90
46676;DHT22;32412;51.478;5.694;2023-01-19T11:24:00;5.40;99.90
46676;DHT22;32412;51.478;5.694;2023-01-19T11:26:44;5.40;99.90
46676;DHT22;32412;51.478;5.694;2023-01-19T11:29:20;5.10;99.90
46676;DHT22;32412;51.478;5.694;2023-01-19T11:31:47;5.30;99.90
46676;DHT22;32412;51.478;5.694;2023-01-19T11:34:33;5.20;99.90
46676;DHT22;32412;51.478;5.694;2023-01-19T11:37:24;5.30;99.90
46676;DHT22;32412;51.478;5.694;2023-01-19T11:39:54;5.80;99.90
46676;DHT22;32412;51.478;5.694;2023-01-19T11:42:20;5.90;99.90
46676;DHT22;32412;51.478;5.694;2023-01-19T11:47:42;6.50;99.90
46676;DHT22;32412;51.478;5.694;2023-01-19T11:50:24;6.70;99.90
46676;DHT22;32412;51.478;5.694;2023-01-19T11:58:14;7.80;99.90
46676;DHT22;32412;51.478;5.694;2023-01-19T12:03:32;8.90;99.90
46676;DHT22;32412;51.478;5.694;2023-01-19T12:06:18;8.90;99.90
46676;DHT22;32412;51.478;5.694;2023-01-19T12:08:47;8.60;99.90
46676;DHT22;32412;51.478;5.694;2023-01-19T12:11:19;8.10;99.90
46676;DHT22;32412;51.478;5.694;2023-01-19T12:13:46;7.30;99.90
46676;DHT22;32412;51.478;5.694;2023-01-19T12:16:19;7.00;99.90
46676;DHT22;32412;51.478;5.694;2023-01-19T12:19:05;7.20;99.90
46676;DHT22;32412;51.478;5.694;2023-01-19T12:21:34;7.80;99.90
46676;DHT22;32412;51.478;5.694;2023-01-19T12:24:15;8.30;99.90
46676;DHT22;32412;51.478;5.694;2023-01-19T12:26:55;9.00;99.90
46676;DHT22;32412;51.478;5.694;2023-01-19T12:29:30;9.10;99.90
46676;DHT22;32412;51.478;5.694;2023-01-19T12:34:42;9.30;99.90
46676;DHT22;32412;51.478;5.694;2023-01-19T12:37:32;8.80;99.90
46676;DHT22;32412;51.478;5.694;2023-01-19T12:40:03;8.50;99.90
46676;DHT22;32412;51.478;5.694;2023-01-19T12:42:46;8.80;99.90
46676;DHT22;32412;51.478;5.694;2023-01-19T12:45:22;9.50;99.90
46676;DHT22;32412;51.478;5.694;2023-01-19T12:47:54;9.20;99.90
46676;DHT22;32412;51.478;5.694;2023-01-19T12:50:21;9.60;99.90
46676;DHT22;32412;51.478;5.694;2023-01-19T12:52:55;9.70;99.90
46676;DHT22;32412;51.478;5.694;2023-01-19T12:55:29;9.50;99.90
46676;DHT22;32412;51.478;5.694;2023-01-19T13:00:31;8.20;99.90
46676;DHT22;32412;51.478;5.694;2023-01-19T13:03:40;7.50;99.90
46676;DHT22;32412;51.478;5.694;2023-01-19T13:05:49;6.60;99.90
46676;DHT22;32412;51.478;5.694;2023-01-19T13:08:17;6.10;99.90
46676;DHT22;32412;51.478;5.694;2023-01-19T13:15:59;5.10;99.90
46676;DHT22;32412;51.478;5.694;2023-01-19T13:18:57;4.90;99.90
46676;DHT22;32412;51.478;5.694;2023-01-19T13:24:02;4.90;99.90
46676;DHT22;32412;51.478;5.694;2023-01-19T13:26:34;5.10;99.90
46676;DHT22;32412;51.478;5.694;2023-01-19T13:29:32;5.00;99.90
46676;DHT22;32412;51.478;5.694;2023-01-19T13:32:01;4.80;99.90
46676;DHT22;32412;51.478;5.694;2023-01-19T13:34:47;4.70;99.90
46676;DHT22;32412;51.478;5.694;2023-01-19T13:37:28;4.30;99.90
46676;DHT22;32412;51.478;5.694;2023-01-19T13:39:55;4.10;99.90
46676;DHT22;32412;51.478;5.694;2023-01-19T13:42:38;4.00;99.90
46676;DHT22;32412;51.478;5.694;2023-01-19T13:45:32;4.40;99.90
46676;DHT22;32412;51.478;5.694;2023-01-19T13:48:00;4.70;99.90
46676;DHT22;32412;51.478;5.694;2023-01-19T13:50:30;4.60;99.90
46676;DHT22;32412;51.478;5.694;2023-01-19T13:52:56;4.40;99.90
46676;DHT22;32412;51.478;5.694;2023-01-19T13:55:27;4.40;99.90
46676;DHT22;32412;51.478;5.694;2023-01-19T13:57:53;4.40;99.90
46676;DHT22;32412;51.478;5.694;2023-01-19T14:05:26;4.60;99.90
46676;DHT22;32412;51.478;5.694;2023-01-19T14:13:25;4.80;99.90
46676;DHT22;32412;51.478;5.694;2023-01-19T14:15:54;4.70;99.90
46676;DHT22;32412;51.478;5.694;2023-01-19T14:18:26;4.70;99.90
46676;DHT22;32412;51.478;5.694;2023-01-19T14:23:52;4.30;99.90
46676;DHT22;32412;51.478;5.694;2023-01-19T14:26:44;4.30;99.90
46676;DHT22;32412;51.478;5.694;2023-01-19T14:39:52;4.00;99.90
46676;DHT22;32412;51.478;5.694;2023-01-19T14:42:29;3.90;99.90
46676;DHT22;32412;51.478;5.694;2023-01-19T14:44:57;3.90;99.90
46676;DHT22;32412;51.478;5.694;2023-01-19T14:47:26;3.80;99.90
46676;DHT22;32412;51.478;5.694;2023-01-19T14:49:56;3.90;99.90
46676;DHT22;32412;51.478;5.694;2023-01-19T14:52:38;3.90;99.90
46676;DHT22;32412;51.478;5.694;2023-01-19T14:55:06;3.90;99.90
46676;DHT22;32412;51.478;5.694;2023-01-19T14:57:40;3.80;99.90
46676;DHT22;32412;51.478;5.694;2023-01-19T15:00:18;3.80;99.90
46676;DHT22;32412;51.478;5.694;2023-01-19T15:02:45;3.80;99.90
46676;DHT22;32412;51.478;5.694;2023-01-19T15:05:12;3.80;99.90
46676;DHT22;32412;51.478;5.694;2023-01-19T15:07:40;3.70;99.90
46676;DHT22;32412;51.478;5.694;2023-01-19T15:10:16;3.60;99.90
46676;DHT22;32412;51.478;5.694;2023-01-19T15:12:42;3.60;99.90
46676;DHT22;32412;51.478;5.694;2023-01-19T15:15:20;3.60;99.90
46676;DHT22;32412;51.478;5.694;2023-01-19T15:17:48;3.80;99.90
46676;DHT22;32412;51.478;5.694;2023-01-19T15:20:17;3.90;99.90
46676;DHT22;32412;51.478;5.694;2023-01-19T15:22:43;3.80;99.90
46676;DHT22;32412;51.478;5.694;2023-01-19T15:25:14;3.70;99.90
46676;DHT22;32412;51.478;5.694;2023-01-19T15:27:41;3.60;99.90
46676;DHT22;32412;51.478;5.694;2023-01-19T15:30:19;3.50;99.90
46676;DHT22;32412;51.478;5.694;2023-01-19T15:32:46;3.50;99.90
46676;DHT22;32412;51.478;5.694;2023-01-19T15:35:13;3.30;99.90
46676;DHT22;32412;51.478;5.694;2023-01-19T15:37:39;3.30;99.90
46676;DHT22;32412;51.478;5.694;2023-01-19T15:40:06;3.30;99.90
46676;DHT22;32412;51.478;5.694;2023-01-19T15:42:31;3.40;99.90
46676;DHT22;32412;51.478;5.694;2023-01-19T15:44:57;3.20;99.90
46676;DHT22;32412;51.478;5.694;2023-01-19T15:47:23;3.20;99.90
46676;DHT22;32412;51.478;5.694;2023-01-19T15:49:49;3.10;99.90
46676;DHT22;32412;51.478;5.694;2023-01-19T15:52:14;3.00;99.90
46676;DHT22;32412;51.478;5.694;2023-01-19T15:54:40;3.00;99.90
46676;DHT22;32412;51.478;5.694;2023-01-19T15:57:06;3.00;99.90
46676;DHT22;32412;51.478;5.694;2023-01-19T15:59:31;3.00;99.90
46676;DHT22;32412;51.478;5.694;2023-01-19T16:01:57;3.10;99.90
46676;DHT22;32412;51.478;5.694;2023-01-19T16:04:22;3.00;99.90
46676;DHT22;32412;51.478;5.694;2023-01-19T16:06:48;3.00;99.90
46676;DHT22;32412;51.478;5.694;2023-01-19T16:09:14;2.90;99.90
46676;DHT22;32412;51.478;5.694;2023-01-19T16:11:43;2.80;99.90
46676;DHT22;32412;51.478;5.694;2023-01-19T16:14:09;2.70;99.90
46676;DHT22;32412;51.478;5.694;2023-01-19T16:16:34;2.70;99.90
46676;DHT22;32412;51.478;5.694;2023-01-19T16:19:00;2.60;99.90
46676;DHT22;32412;51.478;5.694;2023-01-19T16:21:26;2.60;99.90
46676;DHT22;32412;51.478;5.694;2023-01-19T16:23:52;2.60;99.90
46676;DHT22;32412;51.478;5.694;2023-01-19T16:28:54;2.50;99.90
46676;DHT22;32412;51.478;5.694;2023-01-19T16:31:20;2.50;99.90
46676;DHT22;32412;51.478;5.694;2023-01-19T16:33:45;2.50;99.90
46676;DHT22;32412;51.478;5.694;2023-01-19T16:36:32;2.40;99.90
46676;DHT22;32412;51.478;5.694;2023-01-19T16:39:00;2.30;99.90
46676;DHT22;32412;51.478;5.694;2023-01-19T16:41:26;2.30;99.90
46676;DHT22;32412;51.478;5.694;2023-01-19T16:43:53;2.20;99.90
46676;DHT22;32412;51.478;5.694;2023-01-19T16:46:22;2.20;99.90
46676;DHT22;32412;51.478;5.694;2023-01-19T16:48:48;2.20;99.90
46676;DHT22;32412;51.478;5.694;2023-01-19T16:51:14;2.10;99.90
46676;DHT22;32412;51.478;5.694;2023-01-19T16:53:40;2.10;99.90
46676;DHT22;32412;51.478;5.694;2023-01-19T16:56:11;2.10;99.90
46676;DHT22;32412;51.478;5.694;2023-01-19T16:58:37;2.10;99.90
46676;DHT22;32412;51.478;5.694;2023-01-19T17:01:08;2.10;99.90
46676;DHT22;32412;51.478;5.694;2023-01-19T17:03:34;2.10;99.90
46676;DHT22;32412;51.478;5.694;2023-01-19T17:06:00;2.00;99.90
46676;DHT22;32412;51.478;5.694;2023-01-19T17:08:26;2.00;99.90
46676;DHT22;32412;51.478;5.694;2023-01-19T17:10:51;2.00;99.90
46676;DHT22;32412;51.478;5.694;2023-01-19T17:13:20;2.00;99.90
46676;DHT22;32412;51.478;5.694;2023-01-19T17:15:46;1.90;99.90
46676;DHT22;32412;51.478;5.694;2023-01-19T17:18:12;1.90;99.90
46676;DHT22;32412;51.478;5.694;2023-01-19T17:20:37;1.80;99.90
46676;DHT22;32412;51.478;5.694;2023-01-19T17:23:03;1.70;99.90
46676;DHT22;32412;51.478;5.694;2023-01-19T17:25:29;1.70;99.90
46676;DHT22;32412;51.478;5.694;2023-01-19T17:27:55;1.60;99.90
46676;DHT22;32412;51.478;5.694;2023-01-19T17:30:22;1.60;99.90
46676;DHT22;32412;51.478;5.694;2023-01-19T17:32:48;1.50;99.90
46676;DHT22;32412;51.478;5.694;2023-01-19T17:35:14;1.40;99.90
46676;DHT22;32412;51.478;5.694;2023-01-19T17:37:39;1.40;99.90
46676;DHT22;32412;51.478;5.694;2023-01-19T17:40:05;1.20;99.90
46676;DHT22;32412;51.478;5.694;2023-01-19T17:42:31;1.20;99.90
46676;DHT22;32412;51.478;5.694;2023-01-19T17:44:57;1.20;99.90
46676;DHT22;32412;51.478;5.694;2023-01-19T17:47:22;1.10;99.90
46676;DHT22;32412;51.478;5.694;2023-01-19T17:49:50;1.10;99.90
46676;DHT22;32412;51.478;5.694;2023-01-19T17:52:15;1.00;99.90
46676;DHT22;32412;51.478;5.694;2023-01-19T17:54:41;1.10;99.90
46676;DHT22;32412;51.478;5.694;2023-01-19T17:57:07;1.00;99.90
46676;DHT22;32412;51.478;5.694;2023-01-19T17:59:32;1.10;99.90
46676;DHT22;32412;51.478;5.694;2023-01-19T18:01:58;1.00;99.90
46676;DHT22;32412;51.478;5.694;2023-01-19T18:04:24;1.00;99.90
46676;DHT22;32412;51.478;5.694;2023-01-19T18:06:49;1.10;99.90
46676;DHT22;32412;51.478;5.694;2023-01-19T18:09:15;1.00;99.90
46676;DHT22;32412;51.478;5.694;2023-01-19T18:11:40;1.00;99.90
46676;DHT22;32412;51.478;5.694;2023-01-19T18:14:07;0.90;99.90
46676;DHT22;32412;51.478;5.694;2023-01-19T18:16:34;0.90;99.90
46676;DHT22;32412;51.478;5.694;2023-01-19T18:19:00;0.90;99.90
46676;DHT22;32412;51.478;5.694;2023-01-19T18:21:26;0.80;99.90
46676;DHT22;32412;51.478;5.694;2023-01-19T18:24:01;0.70;99.90
46676;DHT22;32412;51.478;5.694;2023-01-19T18:26:28;0.70;99.90
46676;DHT22;32412;51.478;5.694;2023-01-19T18:28:54;0.60;99.90
46676;DHT22;32412;51.478;5.694;2023-01-19T18:31:21;0.60;99.90
46676;DHT22;32412;51.478;5.694;2023-01-19T18:33:47;0.60;99.90
46676;DHT22;32412;51.478;5.694;2023-01-19T18:36:14;0.60;99.90
46676;DHT22;32412;51.478;5.694;2023-01-19T18:38:40;0.60;99.90
46676;DHT22;32412;51.478;5.694;2023-01-19T18:41:09;0.50;99.90
46676;DHT22;32412;51.478;5.694;2023-01-19T18:43:35;0.50;99.90
46676;DHT22;32412;51.478;5.694;2023-01-19T18:46:01;0.50;99.90
46676;DHT22;32412;51.478;5.694;2023-01-19T18:48:27;0.50;99.90
46676;DHT22;32412;51.478;5.694;2023-01-19T18:50:53;0.40;99.90
46676;DHT22;32412;51.478;5.694;2023-01-19T18:53:19;0.40;99.90
46676;DHT22;32412;51.478;5.694;2023-01-19T18:55:53;0.40;99.90
46676;DHT22;32412;51.478;5.694;2023-01-19T18:58:19;0.30;99.90
46676;DHT22;32412;51.478;5.694;2023-01-19T19:00:46;0.30;99.90
46676;DHT22;32412;51.478;5.694;2023-01-19T19:03:12;0.20;99.90
46676;DHT22;32412;51.478;5.694;2023-01-19T19:05:38;0.20;99.90
46676;DHT22;32412;51.478;5.694;2023-01-19T19:08:04;0.20;99.90
46676;DHT22;32412;51.478;5.694;2023-01-19T19:10:30;0.20;99.90
46676;DHT22;32412;51.478;5.694;2023-01-19T19:12:56;0.10;99.90
46676;DHT22;32412;51.478;5.694;2023-01-19T19:15:22;0.10;99.90
46676;DHT22;32412;51.478;5.694;2023-01-19T19:17:47;0.10;99.90
46676;DHT22;32412;51.478;5.694;2023-01-19T19:20:13;0.00;99.90
46676;DHT22;32412;51.478;5.694;2023-01-19T19:22:39;0.10;99.90
46676;DHT22;32412;51.478;5.694;2023-01-19T19:25:05;0.00;99.90
46676;DHT22;32412;51.478;5.694;2023-01-19T19:27:30;0.00;99.90
46676;DHT22;32412;51.478;5.694;2023-01-19T19:29:56;-0.10;99.90
46676;DHT22;32412;51.478;5.694;2023-01-19T19:32:22;-0.10;99.90
46676;DHT22;32412;51.478;5.694;2023-01-19T19:34:48;-0.10;99.90
46676;DHT22;32412;51.478;5.694;2023-01-19T19:37:14;-0.20;99.90
46676;DHT22;32412;51.478;5.694;2023-01-19T19:39:40;-0.20;99.90
46676;DHT22;32412;51.478;5.694;2023-01-19T19:42:06;-0.20;99.90
46676;DHT22;32412;51.478;5.694;2023-01-19T19:44:31;-0.30;99.90
46676;DHT22;32412;51.478;5.694;2023-01-19T19:46:57;-0.30;99.90
46676;DHT22;32412;51.478;5.694;2023-01-19T19:49:23;-0.40;99.90